Time;durP1;ratioP1;P1;durP2;ratioP2;P2;SDS_P1;SDS_P2;PMS_P1;PMS_P2;Temp;Humidity;BMP_temperature;BMP_pressure;BME280_temperature;BME280_humidity;BME280_pressure;Samples;Min_cycle;Max_cycle;Signal;HPM_P1;HPM_P2
2022/06/29 00:01:47;;;;;;;10.17;3.13;;;;;;;;;;5212254;28;20022;-67
2022/06/29 00:04:18;;;;;;;5.97;2.73;;;;;;;;;;5212324;28;20048;-67
2022/06/29 00:06:50;;;;;;;11.57;2.70;;;;;;;;;;5210344;28;20120;-67
2022/06/29 00:09:21;;;;;;;6.83;2.53;;;;;;;;;;5217229;28;20045;-67
2022/06/29 00:11:52;;;;;;;5.72;2.65;;;;;;;;;;5211553;28;20018;-68
2022/06/29 00:14:23;;;;;;;7.40;2.50;;;;;;;;;;5212029;28;20129;-68
2022/06/29 00:16:54;;;;;;;7.70;2.53;;;;;;;;;;5210647;28;20048;-70
2022/06/29 00:19:25;;;;;;;5.23;2.40;;;;;;;;;;5228228;28;20040;-68
2022/06/29 00:21:57;;;;;;;9.27;2.85;;;;;;;;;;5232532;28;20018;-66
2022/06/29 00:24:29;;;;;;;7.43;2.83;;;;;;;;;;5216977;28;20028;-67
2022/06/29 00:27:01;;;;;;;5.40;2.73;;;;;;;;;;5220352;28;20010;-67
2022/06/29 00:29:32;;;;;;;7.70;2.47;;;;;;;;;;5212124;28;20029;-67
2022/06/29 00:32:04;;;;;;;11.30;2.73;;;;;;;;;;5209786;28;20022;-66
2022/06/29 00:34:35;;;;;;;8.30;2.63;;;;;;;;;;5217190;28;20026;-67
2022/06/29 00:37:06;;;;;;;10.07;3.10;;;;;;;;;;5229707;28;20036;-67
2022/06/29 00:39:38;;;;;;;4.33;2.47;;;;;;;;;;5230681;28;20037;-67
2022/06/29 00:42:09;;;;;;;7.00;2.40;;;;;;;;;;5231077;28;20017;-67
2022/06/29 00:44:40;;;;;;;8.40;2.53;;;;;;;;;;5232145;28;20480;-66
2022/06/29 00:47:11;;;;;;;8.10;2.40;;;;;;;;;;5231643;28;20029;-66
2022/06/29 00:49:42;;;;;;;6.50;2.87;;;;;;;;;;5231797;28;20037;-66
2022/06/29 00:52:15;;;;;;;7.17;2.60;;;;;;;;;;5230427;28;20031;-66
2022/06/29 00:54:51;;;;;;;6.63;2.80;;;;;;;;;;5211952;28;20018;-67
2022/06/29 00:57:24;;;;;;;5.03;2.63;;;;;;;;;;5210498;28;20033;-67
2022/06/29 00:59:59;;;;;;;7.93;2.97;;;;;;;;;;5209472;28;20044;-68
2022/06/29 01:02:34;;;;;;;7.13;2.70;;;;;;;;;;5209326;28;20026;-66
2022/06/29 01:05:05;;;;;;;9.37;3.40;;;;;;;;;;5211393;28;20046;-67
2022/06/29 01:07:37;;;;;;;5.90;3.03;;;;;;;;;;5222002;28;20034;-67
2022/06/29 01:10:08;;;;;;;6.27;3.20;;;;;;;;;;5210122;28;20034;-66
2022/06/29 01:12:39;;;;;;;6.37;2.77;;;;;;;;;;5209414;28;20072;-67
2022/06/29 01:15:10;;;;;;;5.23;2.97;;;;;;;;;;5211044;28;20069;-67
2022/06/29 01:17:42;;;;;;;12.00;3.03;;;;;;;;;;5214638;28;20129;-66
2022/06/29 01:20:13;;;;;;;5.33;3.03;;;;;;;;;;5213080;28;20049;-67
2022/06/29 01:22:45;;;;;;;8.37;3.40;;;;;;;;;;5212538;28;20037;-67
2022/06/29 01:25:17;;;;;;;7.03;3.07;;;;;;;;;;5211814;28;20114;-67
2022/06/29 01:27:48;;;;;;;10.33;2.93;;;;;;;;;;5211730;28;20571;-67
2022/06/29 01:30:19;;;;;;;6.37;2.83;;;;;;;;;;5210935;28;20109;-67
2022/06/29 01:32:50;;;;;;;8.10;3.77;;;;;;;;;;5213633;28;20026;-67
2022/06/29 01:35:23;;;;;;;6.50;3.30;;;;;;;;;;5232138;28;20021;-67
2022/06/29 01:37:54;;;;;;;8.60;3.57;;;;;;;;;;5210907;28;20033;-71
2022/06/29 01:40:25;;;;;;;7.30;3.90;;;;;;;;;;5225423;28;20052;-67
2022/06/29 01:42:56;;;;;;;9.40;3.63;;;;;;;;;;5230809;28;20029;-68
2022/06/29 01:45:28;;;;;;;9.37;4.10;;;;;;;;;;5215228;28;20033;-67
2022/06/29 01:47:59;;;;;;;6.07;3.97;;;;;;;;;;5211092;28;20626;-67
2022/06/29 01:50:30;;;;;;;7.17;3.67;;;;;;;;;;5210809;28;20052;-68
2022/06/29 01:53:01;;;;;;;8.57;3.57;;;;;;;;;;5212120;28;20094;-66
2022/06/29 01:55:32;;;;;;;9.23;3.20;;;;;;;;;;5212811;28;20029;-67
2022/06/29 01:58:03;;;;;;;6.50;3.50;;;;;;;;;;5230222;28;20033;-66
2022/06/29 02:00:35;;;;;;;9.25;4.15;;;;;;;;;;5229263;28;20547;-67
2022/06/29 02:03:06;;;;;;;8.20;3.90;;;;;;;;;;5230247;28;20484;-67
2022/06/29 02:05:37;;;;;;;7.23;3.40;;;;;;;;;;5228173;28;20041;-67
2022/06/29 02:08:09;;;;;;;7.67;3.60;;;;;;;;;;5229961;28;20021;-68
2022/06/29 02:10:40;;;;;;;8.23;4.53;;;;;;;;;;5230654;28;20029;-67
2022/06/29 02:13:11;;;;;;;5.87;3.50;;;;;;;;;;5229743;28;20163;-67
2022/06/29 02:15:42;;;;;;;6.60;3.47;;;;;;;;;;5227840;28;20108;-67
2022/06/29 02:18:13;;;;;;;10.67;3.87;;;;;;;;;;5230786;28;20037;-67
2022/06/29 02:20:45;;;;;;;7.60;3.70;;;;;;;;;;5215124;28;20026;-66
2022/06/29 02:23:16;;;;;;;8.00;3.10;;;;;;;;;;5221317;28;20041;-67
2022/06/29 02:25:48;;;;;;;6.20;3.20;;;;;;;;;;5230038;28;20033;-66
2022/06/29 02:28:19;;;;;;;7.93;4.07;;;;;;;;;;5227574;28;20520;-66
2022/06/29 02:36:30;;;;;;;10.53;3.53;;;;;;;;;;5229288;28;20029;-66
2022/06/29 02:39:01;;;;;;;7.23;3.80;;;;;;;;;;5229731;28;20025;-67
2022/06/29 02:41:32;;;;;;;5.90;3.87;;;;;;;;;;5228912;28;20140;-67
2022/06/29 02:44:03;;;;;;;8.20;3.53;;;;;;;;;;5229481;28;20028;-67
2022/06/29 02:46:34;;;;;;;7.30;4.10;;;;;;;;;;5219696;28;20080;-67
2022/06/29 02:49:06;;;;;;;7.10;4.00;;;;;;;;;;5209078;28;20041;-66
2022/06/29 02:51:37;;;;;;;8.80;3.50;;;;;;;;;;5210212;28;20054;-66
2022/06/29 02:54:08;;;;;;;9.07;4.17;;;;;;;;;;5209227;28;20018;-67
2022/06/29 02:56:39;;;;;;;12.63;4.50;;;;;;;;;;5208687;28;20025;-67
2022/06/29 02:59:10;;;;;;;8.60;4.00;;;;;;;;;;5207372;28;20088;-67
2022/06/29 03:01:41;;;;;;;7.00;3.87;;;;;;;;;;5208490;28;20510;-66
2022/06/29 03:04:13;;;;;;;4.47;3.60;;;;;;;;;;5208636;28;20081;-66
2022/06/29 03:06:44;;;;;;;7.70;4.20;;;;;;;;;;5210890;28;20072;-67
2022/06/29 03:09:15;;;;;;;7.93;4.53;;;;;;;;;;5208662;28;20032;-68
2022/06/29 03:11:46;;;;;;;10.83;5.03;;;;;;;;;;5208076;28;20028;-68
2022/06/29 03:14:17;;;;;;;10.05;4.28;;;;;;;;;;5208674;28;20021;-67
2022/06/29 03:16:49;;;;;;;9.17;5.53;;;;;;;;;;5209121;28;20022;-68
2022/06/29 03:19:20;;;;;;;6.97;4.57;;;;;;;;;;5208832;28;20042;-67
2022/06/29 03:21:51;;;;;;;6.50;4.07;;;;;;;;;;5216046;28;20071;-68
2022/06/29 03:24:23;;;;;;;8.20;4.57;;;;;;;;;;5229403;28;20828;-67
2022/06/29 03:26:54;;;;;;;6.73;4.77;;;;;;;;;;5227267;28;20527;-67
2022/06/29 03:29:26;;;;;;;7.15;4.30;;;;;;;;;;5229182;28;20581;-67
2022/06/29 03:31:57;;;;;;;13.27;5.20;;;;;;;;;;5228830;28;20645;-67
2022/06/29 03:34:28;;;;;;;8.70;4.43;;;;;;;;;;5229351;28;20466;-68
2022/06/29 03:36:59;;;;;;;9.37;4.47;;;;;;;;;;5232919;28;20041;-67
2022/06/29 03:39:31;;;;;;;8.13;4.70;;;;;;;;;;5228598;28;20095;-66
2022/06/29 03:42:02;;;;;;;8.80;4.27;;;;;;;;;;5228781;28;20025;-67
2022/06/29 03:44:33;;;;;;;9.57;5.07;;;;;;;;;;5226342;28;20032;-66
2022/06/29 03:47:04;;;;;;;8.02;5.53;;;;;;;;;;5206908;28;20668;-68
2022/06/29 03:49:36;;;;;;;8.27;4.50;;;;;;;;;;5208707;28;20740;-67
2022/06/29 03:52:07;;;;;;;5.97;4.30;;;;;;;;;;5207969;28;20026;-67
2022/06/29 03:54:38;;;;;;;8.15;4.90;;;;;;;;;;5227612;28;20020;-67
2022/06/29 03:57:09;;;;;;;5.70;4.30;;;;;;;;;;5222217;28;20067;-67
2022/06/29 03:59:41;;;;;;;8.53;4.40;;;;;;;;;;5229044;28;20022;-67
2022/06/29 04:02:12;;;;;;;8.40;4.83;;;;;;;;;;5209850;28;20018;-67
2022/06/29 04:04:43;;;;;;;8.47;5.07;;;;;;;;;;5227110;28;20294;-66
2022/06/29 04:07:14;;;;;;;8.53;4.60;;;;;;;;;;5213735;28;20026;-67
2022/06/29 04:09:45;;;;;;;5.40;4.30;;;;;;;;;;5207883;28;20018;-65
2022/06/29 04:12:16;;;;;;;9.83;4.47;;;;;;;;;;5207451;28;20010;-66
2022/06/29 04:14:48;;;;;;;8.30;4.88;;;;;;;;;;5208761;28;20013;-67
2022/06/29 04:17:19;;;;;;;7.13;4.70;;;;;;;;;;5207645;28;20021;-67
2022/06/29 04:19:51;;;;;;;5.37;4.50;;;;;;;;;;5207187;28;20021;-67
2022/06/29 04:22:22;;;;;;;10.77;6.00;;;;;;;;;;5208631;28;20046;-66
2022/06/29 04:24:54;;;;;;;6.90;5.00;;;;;;;;;;5232315;28;20032;-66
2022/06/29 04:27:25;;;;;;;10.67;5.03;;;;;;;;;;5227738;28;20469;-67
2022/06/29 04:29:56;;;;;;;8.17;4.30;;;;;;;;;;5228592;28;20025;-67
2022/06/29 04:32:27;;;;;;;12.07;6.67;;;;;;;;;;5228972;28;20036;-66
2022/06/29 04:34:58;;;;;;;10.10;5.80;;;;;;;;;;5233424;28;20048;-66
2022/06/29 04:37:30;;;;;;;11.07;5.40;;;;;;;;;;5215750;28;20030;-67
2022/06/29 04:40:03;;;;;;;11.63;5.37;;;;;;;;;;5211963;28;20520;-67
2022/06/29 04:42:34;;;;;;;6.93;5.13;;;;;;;;;;5210266;28;20025;-67
2022/06/29 04:45:05;;;;;;;7.50;5.83;;;;;;;;;;5211869;28;20088;-67
2022/06/29 04:47:37;;;;;;;9.60;6.03;;;;;;;;;;5212609;28;20030;-67
2022/06/29 04:50:08;;;;;;;9.33;5.53;;;;;;;;;;5211436;28;20468;-68
2022/06/29 04:52:39;;;;;;;6.50;5.87;;;;;;;;;;5211262;28;20469;-68
2022/06/29 04:55:10;;;;;;;10.40;6.23;;;;;;;;;;5213042;28;20022;-66
2022/06/29 04:57:42;;;;;;;9.83;5.43;;;;;;;;;;5210164;28;20047;-66
2022/06/29 05:00:13;;;;;;;8.73;5.80;;;;;;;;;;5209463;28;20025;-66
2022/06/29 05:02:45;;;;;;;8.97;6.43;;;;;;;;;;5211503;28;20049;-67
2022/06/29 05:05:16;;;;;;;10.37;7.17;;;;;;;;;;5210945;28;20178;-67
2022/06/29 05:07:47;;;;;;;9.67;6.50;;;;;;;;;;5217526;28;20028;-67
2022/06/29 05:10:18;;;;;;;8.47;6.57;;;;;;;;;;5211386;28;20277;-68
2022/06/29 05:12:49;;;;;;;10.02;6.20;;;;;;;;;;5214082;28;20034;-67
2022/06/29 05:15:20;;;;;;;9.60;6.22;;;;;;;;;;5211063;28;20101;-66
2022/06/29 05:17:52;;;;;;;9.33;6.17;;;;;;;;;;5213883;28;20037;-66
2022/06/29 05:20:23;;;;;;;10.50;6.37;;;;;;;;;;5211547;28;20516;-66
2022/06/29 05:22:54;;;;;;;7.10;5.40;;;;;;;;;;5215962;28;20064;-71
2022/06/29 05:25:25;;;;;;;11.23;6.13;;;;;;;;;;5231207;28;20492;-67
2022/06/29 05:27:57;;;;;;;11.17;5.80;;;;;;;;;;5230653;28;20030;-67
2022/06/29 05:30:28;;;;;;;8.20;5.80;;;;;;;;;;5227836;28;20020;-66
2022/06/29 05:32:59;;;;;;;11.07;5.37;;;;;;;;;;5217488;28;20031;-67
2022/06/29 05:35:33;;;;;;;6.87;6.03;;;;;;;;;;5221937;28;20029;-67
2022/06/29 05:38:04;;;;;;;6.78;5.28;;;;;;;;;;5210925;28;20124;-67
2022/06/29 05:40:36;;;;;;;10.53;5.30;;;;;;;;;;5210034;28;20148;-67
2022/06/29 05:43:07;;;;;;;7.20;4.87;;;;;;;;;;5227499;28;20428;-68
2022/06/29 05:45:38;;;;;;;8.97;4.87;;;;;;;;;;5213175;28;20396;-67
2022/06/29 05:48:10;;;;;;;7.77;4.97;;;;;;;;;;5209190;28;20030;-68
2022/06/29 05:50:41;;;;;;;12.13;5.40;;;;;;;;;;5224574;28;20052;-68
2022/06/29 05:53:12;;;;;;;7.25;5.40;;;;;;;;;;5209392;28;20093;-67
2022/06/29 05:55:43;;;;;;;9.07;4.50;;;;;;;;;;5209605;28;20109;-67
2022/06/29 05:58:18;;;;;;;10.53;5.00;;;;;;;;;;5214334;28;20048;-66
2022/06/29 06:00:50;;;;;;;9.97;4.63;;;;;;;;;;5216118;28;20033;-67
2022/06/29 06:03:21;;;;;;;10.23;4.93;;;;;;;;;;5209760;28;20018;-67
2022/06/29 06:05:52;;;;;;;11.97;4.33;;;;;;;;;;5208235;28;20029;-67
2022/06/29 06:08:23;;;;;;;9.20;4.33;;;;;;;;;;5226532;28;20040;-68
2022/06/29 06:10:54;;;;;;;12.97;4.10;;;;;;;;;;5225878;28;20490;-69
2022/06/29 06:13:26;;;;;;;10.07;4.40;;;;;;;;;;5210325;28;20017;-68
2022/06/29 06:15:57;;;;;;;9.03;4.93;;;;;;;;;;5209047;28;20099;-68
2022/06/29 06:18:28;;;;;;;7.13;4.70;;;;;;;;;;5213100;28;20018;-67
2022/06/29 06:20:59;;;;;;;9.82;4.78;;;;;;;;;;5221491;28;20018;-68
2022/06/29 06:23:30;;;;;;;7.05;3.78;;;;;;;;;;5216545;28;20022;-68
2022/06/29 06:26:01;;;;;;;7.07;4.25;;;;;;;;;;5214562;28;20025;-68
2022/06/29 06:28:33;;;;;;;7.33;4.37;;;;;;;;;;5227327;28;20021;-67
2022/06/29 06:31:04;;;;;;;8.20;4.73;;;;;;;;;;5222316;28;20413;-68
2022/06/29 06:33:35;;;;;;;7.10;4.17;;;;;;;;;;5213065;28;20028;-68
2022/06/29 06:36:06;;;;;;;6.90;3.97;;;;;;;;;;5216006;28;20026;-69
2022/06/29 06:38:37;;;;;;;6.63;3.47;;;;;;;;;;5210263;28;20481;-68
2022/06/29 06:41:25;;;;;;;7.73;3.13;;;;;;;;;;5221845;28;20067;-69
2022/06/29 06:43:57;;;;;;;8.47;2.93;;;;;;;;;;5226525;28;20488;-68
2022/06/29 06:46:29;;;;;;;6.53;3.50;;;;;;;;;;5213502;28;20402;-69
2022/06/29 06:49:00;;;;;;;12.67;2.97;;;;;;;;;;5206676;28;20037;-69
2022/06/29 06:51:31;;;;;;;7.50;2.37;;;;;;;;;;5210048;28;20021;-69
2022/06/29 06:54:02;;;;;;;6.07;2.93;;;;;;;;;;5216905;28;20026;-69
2022/06/29 06:56:34;;;;;;;5.60;2.10;;;;;;;;;;5228120;28;20028;-69
2022/06/29 06:59:05;;;;;;;9.90;2.33;;;;;;;;;;5227586;28;20448;-69
2022/06/29 07:01:36;;;;;;;7.63;2.40;;;;;;;;;;5227945;28;20038;-75
2022/06/29 07:04:07;;;;;;;9.00;2.33;;;;;;;;;;5223331;28;20053;-73
2022/06/29 07:06:39;;;;;;;4.30;2.00;;;;;;;;;;5224729;28;20022;-74
2022/06/29 07:09:12;;;;;;;5.42;2.18;;;;;;;;;;5219671;28;20569;-73
2022/06/29 07:11:44;;;;;;;6.77;2.43;;;;;;;;;;5212646;28;20156;-73
2022/06/29 07:14:15;;;;;;;4.00;1.87;;;;;;;;;;5208353;28;20014;-71
2022/06/29 07:16:46;;;;;;;11.10;2.67;;;;;;;;;;5209924;28;20140;-72
2022/06/29 07:19:17;;;;;;;3.97;2.00;;;;;;;;;;5218466;28;20033;-71
2022/06/29 07:21:48;;;;;;;6.03;2.17;;;;;;;;;;5210333;28;20492;-71
2022/06/29 07:24:20;;;;;;;4.75;1.95;;;;;;;;;;5209014;28;20076;-71
2022/06/29 07:26:51;;;;;;;2.85;1.50;;;;;;;;;;5205912;28;20021;-71
2022/06/29 07:29:22;;;;;;;4.63;2.08;;;;;;;;;;5208582;28;20018;-71
2022/06/29 07:31:53;;;;;;;5.38;1.98;;;;;;;;;;5207848;28;20022;-71
2022/06/29 07:34:25;;;;;;;5.53;1.70;;;;;;;;;;5208479;28;20037;-72
2022/06/29 07:36:56;;;;;;;5.03;2.10;;;;;;;;;;5207570;28;20018;-75
2022/06/29 07:39:30;;;;;;;3.85;1.85;;;;;;;;;;5208103;28;20029;-73
2022/06/29 07:42:02;;;;;;;6.32;1.83;;;;;;;;;;5206689;28;20109;-72
2022/06/29 07:44:33;;;;;;;2.85;1.58;;;;;;;;;;5207024;28;20117;-73
2022/06/29 07:47:05;;;;;;;8.25;1.85;;;;;;;;;;5208763;28;20022;-73
2022/06/29 07:49:36;;;;;;;6.50;1.48;;;;;;;;;;5207917;28;20061;-71
2022/06/29 07:52:07;;;;;;;4.05;1.50;;;;;;;;;;5206958;28;20734;-71
2022/06/29 07:54:39;;;;;;;5.95;1.70;;;;;;;;;;5207585;28;20056;-71
2022/06/29 07:57:10;;;;;;;4.88;1.35;;;;;;;;;;5206273;28;20547;-71
2022/06/29 07:59:41;;;;;;;3.72;1.40;;;;;;;;;;5206875;28;20843;-72
2022/06/29 08:02:12;;;;;;;2.90;1.38;;;;;;;;;;5208011;28;20021;-71
2022/06/29 08:04:43;;;;;;;4.50;1.27;;;;;;;;;;5208123;28;20114;-71
2022/06/29 08:07:15;;;;;;;8.30;1.60;;;;;;;;;;5217492;28;20025;-71
2022/06/29 08:09:46;;;;;;;8.07;1.55;;;;;;;;;;5211820;28;20025;-71
2022/06/29 08:12:17;;;;;;;4.82;1.70;;;;;;;;;;5212750;28;20019;-70
2022/06/29 08:14:48;;;;;;;4.65;1.50;;;;;;;;;;5228513;28;20029;-70
2022/06/29 08:17:19;;;;;;;4.97;1.50;;;;;;;;;;5230429;28;20024;-71
2022/06/29 08:19:51;;;;;;;5.63;1.83;;;;;;;;;;5216860;28;20446;-72
2022/06/29 08:22:22;;;;;;;7.03;2.13;;;;;;;;;;5218720;28;20022;-70
2022/06/29 08:24:53;;;;;;;8.23;1.40;;;;;;;;;;5212044;28;20034;-72
2022/06/29 08:27:25;;;;;;;8.25;1.50;;;;;;;;;;5213115;28;20017;-72
2022/06/29 08:29:56;;;;;;;6.03;1.73;;;;;;;;;;5209847;28;20092;-73
2022/06/29 08:32:30;;;;;;;4.30;1.65;;;;;;;;;;5211646;28;20076;-71
2022/06/29 08:35:01;;;;;;;3.80;1.20;;;;;;;;;;5207772;28;20072;-71
2022/06/29 08:37:32;;;;;;;3.60;1.25;;;;;;;;;;5203282;28;20022;-71
2022/06/29 08:40:07;;;;;;;4.60;1.42;;;;;;;;;;5194663;28;20429;-71
2022/06/29 08:42:39;;;;;;;6.30;1.38;;;;;;;;;;5203387;28;20033;-71
2022/06/29 08:45:11;;;;;;;3.28;1.40;;;;;;;;;;5210707;28;20419;-72
2022/06/29 08:47:42;;;;;;;6.60;1.38;;;;;;;;;;5209999;28;20018;-72
2022/06/29 08:50:13;;;;;;;4.57;1.23;;;;;;;;;;5207428;28;20626;-71
2022/06/29 08:52:45;;;;;;;4.93;1.63;;;;;;;;;;5210389;28;20014;-71
2022/06/29 08:55:18;;;;;;;2.27;1.03;;;;;;;;;;5224596;28;20034;-71
2022/06/29 08:57:49;;;;;;;4.60;1.67;;;;;;;;;;5214414;28;20021;-71
2022/06/29 09:00:21;;;;;;;6.95;1.70;;;;;;;;;;5210247;28;20017;-71
2022/06/29 09:02:53;;;;;;;3.55;1.00;;;;;;;;;;5211067;28;20110;-72
2022/06/29 09:05:24;;;;;;;5.00;1.17;;;;;;;;;;5208959;28;20867;-74
2022/06/29 09:07:55;;;;;;;3.55;1.25;;;;;;;;;;5210347;28;20112;-72
2022/06/29 09:10:28;;;;;;;5.07;1.27;;;;;;;;;;5208544;28;20018;-71
2022/06/29 09:13:03;;;;;;;4.43;1.20;;;;;;;;;;5210519;28;20308;-72
2022/06/29 09:15:39;;;;;;;4.10;1.40;;;;;;;;;;5210287;28;20437;-71
2022/06/29 09:18:22;;;;;;;4.18;1.10;;;;;;;;;;5209298;28;20033;-71
2022/06/29 09:20:55;;;;;;;2.90;1.20;;;;;;;;;;5209916;28;20057;-71
2022/06/29 09:23:27;;;;;;;2.20;1.20;;;;;;;;;;5209277;28;20417;-71
2022/06/29 09:25:58;;;;;;;3.53;1.00;;;;;;;;;;5209764;28;20018;-71
2022/06/29 09:28:34;;;;;;;3.00;1.20;;;;;;;;;;5209863;28;20428;-71
2022/06/29 09:31:06;;;;;;;6.88;1.88;;;;;;;;;;5210464;28;20464;-72
2022/06/29 09:33:37;;;;;;;6.87;1.03;;;;;;;;;;5209530;28;20018;-72
2022/06/29 09:36:14;;;;;;;4.43;1.40;;;;;;;;;;5210325;28;20485;-72
2022/06/29 09:38:45;;;;;;;4.03;1.05;;;;;;;;;;5209899;28;20037;-72
2022/06/29 09:41:17;;;;;;;2.30;0.80;;;;;;;;;;5209164;28;20473;-72
2022/06/29 09:43:48;;;;;;;3.13;1.13;;;;;;;;;;5210646;28;20057;-72
2022/06/29 09:46:20;;;;;;;7.90;1.10;;;;;;;;;;5209756;28;20014;-72
2022/06/29 09:48:52;;;;;;;3.13;1.20;;;;;;;;;;5211184;28;20021;-72
2022/06/29 09:51:33;;;;;;;5.55;1.00;;;;;;;;;;5210326;28;20645;-72
2022/06/29 09:54:05;;;;;;;5.18;0.80;;;;;;;;;;5211854;28;20121;-72
2022/06/29 09:56:41;;;;;;;1.13;0.68;;;;;;;;;;5209591;28;20108;-70
2022/06/29 09:59:13;;;;;;;3.90;0.63;;;;;;;;;;5210644;28;20456;-71
2022/06/29 10:04:34;;;;;;;3.85;0.90;;;;;;;;;;5210339;28;20132;-71
2022/06/29 10:07:06;;;;;;;1.43;0.80;;;;;;;;;;5210252;28;20093;-71
2022/06/29 10:09:37;;;;;;;2.70;1.13;;;;;;;;;;5210810;28;20374;-72
2022/06/29 10:15:05;;;;;;;4.32;0.88;;;;;;;;;;5210719;28;20041;-73
2022/06/29 10:17:39;;;;;;;2.03;1.08;;;;;;;;;;5207520;28;20018;-75
2022/06/29 10:20:13;;;;;;;3.03;1.48;;;;;;;;;;5220884;28;20053;-74
2022/06/29 10:22:44;;;;;;;1.80;0.80;;;;;;;;;;5228728;28;20028;-74
2022/06/29 10:25:15;;;;;;;1.83;1.00;;;;;;;;;;5209957;28;20021;-71
2022/06/29 10:28:05;;;;;;;3.50;1.20;;;;;;;;;;5206946;28;20122;-69
2022/06/29 10:30:37;;;;;;;3.60;1.10;;;;;;;;;;5207443;28;20391;-70
2022/06/29 10:33:27;;;;;;;3.35;1.08;;;;;;;;;;5209043;28;20018;-73
2022/06/29 10:36:07;;;;;;;4.65;1.35;;;;;;;;;;5209470;28;20022;-71
2022/06/29 10:38:50;;;;;;;3.25;0.93;;;;;;;;;;5206956;28;20124;-71
2022/06/29 10:44:11;;;;;;;2.72;1.23;;;;;;;;;;5208669;28;20113;-71
2022/06/29 10:46:56;;;;;;;3.22;0.98;;;;;;;;;;5208128;28;20199;-73
2022/06/29 10:49:27;;;;;;;4.40;1.42;;;;;;;;;;5208468;28;20013;-74
2022/06/29 10:51:58;;;;;;;2.70;1.17;;;;;;;;;;5205448;28;20025;-73
2022/06/29 10:54:30;;;;;;;3.33;1.30;;;;;;;;;;5209025;28;20560;-70
2022/06/29 10:57:01;;;;;;;1.42;0.95;;;;;;;;;;5207917;28;20112;-71
2022/06/29 10:59:32;;;;;;;4.35;0.90;;;;;;;;;;5208627;28;20084;-70
2022/06/29 11:02:15;;;;;;;4.88;1.17;;;;;;;;;;5222523;28;20072;-73
2022/06/29 11:04:46;;;;;;;4.72;1.20;;;;;;;;;;5207738;28;20131;-72
2022/06/29 11:12:57;;;;;;;1.73;0.95;;;;;;;;;;5208077;28;20038;-72
2022/06/29 11:15:42;;;;;;;2.05;1.17;;;;;;;;;;5205883;28;20018;-73
2022/06/29 11:18:17;;;;;;;3.22;1.25;;;;;;;;;;5207204;28;20041;-73
2022/06/29 11:20:49;;;;;;;3.08;1.08;;;;;;;;;;5208241;28;20037;-71
2022/06/29 11:23:24;;;;;;;8.20;1.35;;;;;;;;;;5205548;28;20029;-71
2022/06/29 11:25:56;;;;;;;2.28;0.90;;;;;;;;;;5207484;28;20068;-70
2022/06/29 11:28:30;;;;;;;4.82;1.10;;;;;;;;;;5209309;28;20536;-72
2022/06/29 11:31:05;;;;;;;4.20;1.10;;;;;;;;;;5222172;28;20561;-71
2022/06/29 11:33:41;;;;;;;3.95;1.48;;;;;;;;;;5206770;28;20025;-72
2022/06/29 11:36:23;;;;;;;2.33;1.27;;;;;;;;;;5205383;28;20014;-73
2022/06/29 11:38:57;;;;;;;6.25;1.17;;;;;;;;;;5209252;28;20022;-74
2022/06/29 11:44:22;;;;;;;7.15;1.20;;;;;;;;;;5211249;28;20444;-72
2022/06/29 11:46:54;;;;;;;2.95;1.13;;;;;;;;;;5210333;28;20022;-73
2022/06/29 11:49:38;;;;;;;2.38;1.15;;;;;;;;;;5211711;28;20026;-74
2022/06/29 11:52:12;;;;;;;;;;;;;;;;;;5211099;28;20480;-73
2022/06/29 11:54:47;;;;;;;4.60;1.25;;;;;;;;;;5209479;28;20077;-74
2022/06/29 11:57:20;;;;;;;5.45;1.70;;;;;;;;;;5203845;28;20030;-73
2022/06/29 11:59:52;;;;;;;3.10;1.15;;;;;;;;;;5211607;28;20028;-73
2022/06/29 12:02:30;;;;;;;4.07;1.20;;;;;;;;;;5212064;28;20022;-73
2022/06/29 12:05:02;;;;;;;4.05;1.05;;;;;;;;;;5209483;28;20132;-73
2022/06/29 12:07:33;;;;;;;6.05;1.30;;;;;;;;;;5211658;28;20084;-73
2022/06/29 12:10:05;;;;;;;5.35;1.20;;;;;;;;;;5211026;28;20048;-73
2022/06/29 12:12:36;;;;;;;4.05;1.00;;;;;;;;;;5212262;28;20469;-73
2022/06/29 12:15:08;;;;;;;6.30;1.90;;;;;;;;;;5209999;28;20854;-73
2022/06/29 12:17:40;;;;;;;3.88;1.40;;;;;;;;;;5212170;28;20022;-74
2022/06/29 12:20:12;;;;;;;3.17;1.40;;;;;;;;;;5211637;28;20113;-73
2022/06/29 12:22:43;;;;;;;3.28;1.10;;;;;;;;;;5210900;28;20484;-72
2022/06/29 12:25:14;;;;;;;3.45;1.50;;;;;;;;;;5210093;28;20025;-74
2022/06/29 12:27:46;;;;;;;4.68;1.27;;;;;;;;;;5211352;28;20013;-74
2022/06/29 12:30:17;;;;;;;3.67;1.40;;;;;;;;;;5226686;28;20036;-73
2022/06/29 12:32:48;;;;;;;3.50;0.97;;;;;;;;;;5212023;28;20030;-72
2022/06/29 12:35:19;;;;;;;4.20;1.23;;;;;;;;;;5205816;28;20303;-73
2022/06/29 12:37:53;;;;;;;4.35;1.05;;;;;;;;;;5210437;28;20296;-75
2022/06/29 12:40:25;;;;;;;10.50;1.95;;;;;;;;;;5209845;28;20017;-75
2022/06/29 12:42:56;;;;;;;3.47;1.20;;;;;;;;;;5210967;28;20021;-75
2022/06/29 12:45:27;;;;;;;4.85;1.00;;;;;;;;;;5207757;28;20053;-74
2022/06/29 12:47:59;;;;;;;2.92;1.25;;;;;;;;;;5210766;28;20022;-75
2022/06/29 12:50:30;;;;;;;6.93;1.10;;;;;;;;;;5209560;28;20179;-73
2022/06/29 12:53:01;;;;;;;5.43;1.05;;;;;;;;;;5232567;28;20386;-75
2022/06/29 12:55:32;;;;;;;2.38;1.17;;;;;;;;;;5207995;28;20018;-76
2022/06/29 12:58:03;;;;;;;5.05;1.50;;;;;;;;;;5209090;28;20037;-76
2022/06/29 13:00:34;;;;;;;3.22;1.13;;;;;;;;;;5210845;28;20034;-76
2022/06/29 13:03:06;;;;;;;4.47;1.30;;;;;;;;;;5214600;28;20025;-76
2022/06/29 13:05:37;;;;;;;9.70;1.45;;;;;;;;;;5217958;28;20058;-75
2022/06/29 13:08:08;;;;;;;5.93;1.73;;;;;;;;;;5210913;28;20037;-74
2022/06/29 13:10:39;;;;;;;12.02;1.98;;;;;;;;;;5224930;28;20528;-75
2022/06/29 13:13:10;;;;;;;2.13;1.02;;;;;;;;;;5210711;28;20058;-73
2022/06/29 13:15:42;;;;;;;3.80;1.48;;;;;;;;;;5210205;28;20485;-73
2022/06/29 13:18:13;;;;;;;3.58;1.45;;;;;;;;;;5210268;28;20048;-75
2022/06/29 13:20:45;;;;;;;1.77;1.15;;;;;;;;;;5210198;28;20469;-75
2022/06/29 13:23:17;;;;;;;4.20;1.83;;;;;;;;;;5209353;28;20033;-75
2022/06/29 13:25:48;;;;;;;2.95;1.08;;;;;;;;;;5202354;28;20171;-73
2022/06/29 13:28:19;;;;;;;3.20;1.33;;;;;;;;;;5207907;28;20116;-75
2022/06/29 13:30:50;;;;;;;4.13;1.30;;;;;;;;;;5223923;28;20025;-74
2022/06/29 13:33:22;;;;;;;2.55;1.00;;;;;;;;;;5209026;28;20410;-75
2022/06/29 13:35:53;;;;;;;4.65;1.25;;;;;;;;;;5207521;28;20053;-75
2022/06/29 13:38:24;;;;;;;4.38;1.25;;;;;;;;;;5208401;28;20392;-75
2022/06/29 13:40:55;;;;;;;5.95;1.55;;;;;;;;;;5209453;28;20021;-74
2022/06/29 13:43:26;;;;;;;2.08;0.98;;;;;;;;;;5210514;28;20026;-73
2022/06/29 13:45:57;;;;;;;4.72;1.30;;;;;;;;;;5209032;28;20149;-74
2022/06/29 13:48:29;;;;;;;6.43;1.38;;;;;;;;;;5210407;28;20457;-74
2022/06/29 13:51:00;;;;;;;2.55;1.13;;;;;;;;;;5209971;28;20057;-73
2022/06/29 13:53:33;;;;;;;3.08;1.30;;;;;;;;;;5208673;28;20025;-74
2022/06/29 13:56:04;;;;;;;5.43;1.00;;;;;;;;;;5208326;28;20018;-74
2022/06/29 13:58:35;;;;;;;3.97;1.45;;;;;;;;;;5209218;28;20056;-74
2022/06/29 14:01:07;;;;;;;2.72;0.90;;;;;;;;;;5209429;28;20025;-74
2022/06/29 14:03:38;;;;;;;1.98;1.00;;;;;;;;;;5207644;28;20014;-73
2022/06/29 14:06:09;;;;;;;4.35;1.40;;;;;;;;;;5208647;28;20022;-73
2022/06/29 14:08:40;;;;;;;8.80;1.30;;;;;;;;;;5209023;28;20125;-74
2022/06/29 14:11:12;;;;;;;2.95;1.20;;;;;;;;;;5207124;28;20140;-74
2022/06/29 14:13:43;;;;;;;2.40;1.00;;;;;;;;;;5228432;28;20040;-72
2022/06/29 14:16:16;;;;;;;5.25;1.40;;;;;;;;;;5206216;28;20140;-70
2022/06/29 14:18:47;;;;;;;4.45;1.45;;;;;;;;;;5193355;28;20034;-74
2022/06/29 14:21:18;;;;;;;3.85;0.93;;;;;;;;;;5217500;28;20030;-79
2022/06/29 14:23:50;;;;;;;2.78;1.25;;;;;;;;;;5200684;28;20184;-78
2022/06/29 14:26:22;;;;;;;3.38;1.20;;;;;;;;;;5197622;28;20025;-78
2022/06/29 14:28:53;;;;;;;3.38;1.77;;;;;;;;;;5201259;28;20115;-80
2022/06/29 14:31:24;;;;;;;3.38;0.90;;;;;;;;;;5200334;28;20022;-79
2022/06/29 14:33:56;;;;;;;1.60;1.05;;;;;;;;;;5200313;28;20034;-82
2022/06/29 14:36:27;;;;;;;3.17;1.30;;;;;;;;;;5196534;28;20130;-82
2022/06/29 14:38:58;;;;;;;3.50;1.23;;;;;;;;;;5214976;28;20045;-78
2022/06/29 14:41:30;;;;;;;3.30;1.30;;;;;;;;;;5200424;28;20015;-77
2022/06/29 14:44:01;;;;;;;5.68;1.10;;;;;;;;;;5200435;28;20083;-80
2022/06/29 14:46:32;;;;;;;3.25;1.42;;;;;;;;;;5200548;28;20014;-79
2022/06/29 14:49:03;;;;;;;6.28;1.50;;;;;;;;;;5196814;28;20036;-77
2022/06/29 14:51:34;;;;;;;4.30;1.45;;;;;;;;;;5199848;28;20076;-76
2022/06/29 14:54:06;;;;;;;2.47;1.10;;;;;;;;;;5198170;28;20041;-76
2022/06/29 14:56:37;;;;;;;2.85;1.38;;;;;;;;;;5198796;28;20025;-75
2022/06/29 14:59:08;;;;;;;3.22;1.52;;;;;;;;;;5197447;28;20392;-77
2022/06/29 15:01:39;;;;;;;6.50;2.03;;;;;;;;;;5198727;28;20030;-77
2022/06/29 15:04:31;;;;;;;4.45;1.15;;;;;;;;;;5199367;28;20065;-78
2022/06/29 15:07:03;;;;;;;3.05;1.45;;;;;;;;;;5196061;28;20046;-78
2022/06/29 15:09:34;;;;;;;5.53;1.40;;;;;;;;;;5198178;28;20030;-79
2022/06/29 15:12:05;;;;;;;3.22;1.48;;;;;;;;;;5197830;28;20962;-78
2022/06/29 15:14:37;;;;;;;5.82;1.48;;;;;;;;;;5199530;28;20030;-79
2022/06/29 15:17:08;;;;;;;6.75;1.30;;;;;;;;;;5197403;28;20092;-80
2022/06/29 15:19:39;;;;;;;6.38;1.25;;;;;;;;;;5198820;28;20129;-80
2022/06/29 15:22:10;;;;;;;4.20;1.35;;;;;;;;;;5197630;28;20046;-78
2022/06/29 15:25:00;;;;;;;;;;;;;;;;;;;;;
2022/06/29 15:27:32;;;;;;;8.63;1.88;;;;;;;;;;5195811;28;20045;-77
2022/06/29 15:30:03;;;;;;;2.92;1.30;;;;;;;;;;5199438;28;20051;-77
2022/06/29 15:38:47;;;;;;;6.22;1.50;;;;;;;;;;5136469;29;20086;-71
2022/06/29 15:41:45;;;;;;;5.63;1.30;;;;;;;;;;5117897;29;20133;-73